createdAt,value
2019-02-27T00:02:44.363Z,5.4
2019-02-27T00:07:44.843Z,5.3
2019-02-27T00:12:28.004Z,5.2
2019-02-27T00:17:27.821Z,5.1
2019-02-27T00:22:28.082Z,5.1
2019-02-27T00:27:27.887Z,5.0
2019-02-27T00:32:27.645Z,5.0
2019-02-27T00:37:27.871Z,4.9
2019-02-27T00:42:33.431Z,4.9
2019-02-27T00:47:27.942Z,4.8
2019-02-27T00:52:27.147Z,4.7
2019-02-27T00:57:28.491Z,4.6
2019-02-27T01:02:27.810Z,4.6
2019-02-27T01:07:27.969Z,4.5
2019-02-27T01:12:27.746Z,4.4
2019-02-27T01:17:28.675Z,4.4
2019-02-27T01:22:27.612Z,4.4
2019-02-27T01:27:28.276Z,4.3
2019-02-27T01:32:28.819Z,4.2
2019-02-27T01:37:31.274Z,4.2
2019-02-27T01:42:31.852Z,4.2
2019-02-27T01:47:27.954Z,4.1
2019-02-27T01:52:27.594Z,4.0
2019-02-27T01:57:27.426Z,4.0
2019-02-27T02:02:27.350Z,3.9
2019-02-27T02:07:28.083Z,3.8
2019-02-27T02:12:27.845Z,3.7
2019-02-27T02:17:27.888Z,3.6
2019-02-27T02:22:27.865Z,3.6
2019-02-27T02:27:27.436Z,3.6
2019-02-27T02:32:28.401Z,3.5
2019-02-27T02:37:28.681Z,3.5
2019-02-27T02:42:26.849Z,3.5
2019-02-27T02:47:28.053Z,3.4
2019-02-27T02:52:27.413Z,3.3
2019-02-27T02:57:28.050Z,3.3
2019-02-27T03:02:29.748Z,3.3
2019-02-27T03:07:28.545Z,3.2
2019-02-27T03:12:30.918Z,3.2
2019-02-27T03:17:28.523Z,3.2
2019-02-27T03:22:27.548Z,3.2
2019-02-27T03:27:30.493Z,3.1
2019-02-27T03:32:27.621Z,3.1
2019-02-27T03:37:28.233Z,3.1
2019-02-27T03:42:30.778Z,3.0
2019-02-27T03:47:27.811Z,3.0
2019-02-27T03:52:27.757Z,2.9
2019-02-27T03:57:28.300Z,2.9
2019-02-27T04:02:27.760Z,2.8
2019-02-27T04:07:31.448Z,2.8
2019-02-27T04:12:27.850Z,2.8
2019-02-27T04:17:28.246Z,2.8
2019-02-27T04:22:27.184Z,2.7
2019-02-27T04:27:28.274Z,2.7
2019-02-27T04:32:28.315Z,2.7
2019-02-27T04:37:28.462Z,2.7
2019-02-27T04:42:30.086Z,2.6
2019-02-27T04:47:29.047Z,2.5
2019-02-27T04:52:27.578Z,2.5
2019-02-27T04:57:28.101Z,2.4
2019-02-27T05:02:27.820Z,2.4
2019-02-27T05:07:27.915Z,2.5
2019-02-27T05:12:27.968Z,2.4
2019-02-27T05:17:27.505Z,2.3
2019-02-27T05:22:28.026Z,2.3
2019-02-27T05:27:27.750Z,4.6
2019-02-27T05:32:28.891Z,2.3
2019-02-27T05:37:28.917Z,2.3
2019-02-27T05:42:28.351Z,2.3
2019-02-27T05:47:29.260Z,2.3
2019-02-27T05:52:29.148Z,2.3
2019-02-27T05:57:28.450Z,2.2
2019-02-27T06:02:29.399Z,2.2
2019-02-27T06:07:29.023Z,2.2
2019-02-27T06:12:28.139Z,2.1
2019-02-27T06:17:28.537Z,2.1
2019-02-27T06:22:30.364Z,2.1
2019-02-27T06:27:27.826Z,2.0
2019-02-27T06:32:28.548Z,2.1
2019-02-27T06:37:27.758Z,2.2
2019-02-27T06:42:28.287Z,2.3
2019-02-27T06:47:28.017Z,2.4
2019-02-27T06:52:28.318Z,2.6
2019-02-27T06:57:28.168Z,2.8
2019-02-27T07:02:28.399Z,3.0
2019-02-27T07:07:31.205Z,3.3
2019-02-27T07:12:28.373Z,3.6
2019-02-27T07:17:29.122Z,3.8
2019-02-27T07:22:28.150Z,4.1
2019-02-27T07:27:28.343Z,4.5
2019-02-27T07:32:31.333Z,4.5
2019-02-27T07:37:29.036Z,4.9
2019-02-27T07:42:31.857Z,5.4
2019-02-27T07:47:28.978Z,5.4
2019-02-27T07:52:32.050Z,5.6
2019-02-27T07:57:28.666Z,5.9
2019-02-27T08:02:28.296Z,6.2
2019-02-27T08:07:28.160Z,6.4
2019-02-27T08:12:28.750Z,6.7
2019-02-27T08:17:28.542Z,7.0
2019-02-27T08:22:28.731Z,7.6
2019-02-27T08:27:27.700Z,7.9
2019-02-27T08:32:28.076Z,7.8
2019-02-27T08:37:29.796Z,8.2
2019-02-27T08:42:27.981Z,8.5
2019-02-27T08:47:29.099Z,9.2
2019-02-27T08:52:28.049Z,9.5
2019-02-27T08:57:28.479Z,9.5
2019-02-27T09:02:29.376Z,10.1
2019-02-27T09:07:28.858Z,10.2
2019-02-27T09:12:28.435Z,10.6
2019-02-27T09:17:29.551Z,10.9
2019-02-27T09:22:29.066Z,11.3
2019-02-27T09:27:29.371Z,11.7
2019-02-27T09:32:28.617Z,12.1
2019-02-27T09:37:28.585Z,12.9
2019-02-27T09:42:28.057Z,12.8
2019-02-27T09:47:29.441Z,13.4
2019-02-27T09:52:30.052Z,13.9
2019-02-27T09:57:28.250Z,14.3
2019-02-27T10:02:28.974Z,14.7
2019-02-27T10:07:28.443Z,15.1
2019-02-27T10:12:28.950Z,15.5
2019-02-27T10:17:28.824Z,15.9
2019-02-27T10:22:28.339Z,16.3
2019-02-27T10:27:28.684Z,16.7
2019-02-27T10:32:28.939Z,17.2
2019-02-27T10:37:27.976Z,17.6
2019-02-27T10:42:28.953Z,18.0
2019-02-27T10:47:28.420Z,18.4
2019-02-27T10:52:27.794Z,18.8
2019-02-27T10:57:31.402Z,19.1
2019-02-27T11:02:29.042Z,19.5
2019-02-27T11:07:28.528Z,19.8
2019-02-27T11:12:29.403Z,20.1
2019-02-27T11:17:28.906Z,20.4
2019-02-27T11:22:31.365Z,20.7
2019-02-27T11:27:28.298Z,20.9
2019-02-27T11:32:28.941Z,21.4
2019-02-27T11:37:28.361Z,21.4
2019-02-27T11:42:31.960Z,21.6
2019-02-27T11:47:28.355Z,21.9
2019-02-27T11:52:28.931Z,22.0
2019-02-27T11:57:30.460Z,22.1
2019-02-27T12:02:29.126Z,22.4
2019-02-27T12:07:29.184Z,22.6
2019-02-27T12:12:28.961Z,23.2
2019-02-27T12:17:28.805Z,23.2
2019-02-27T12:22:28.257Z,23.5
2019-02-27T12:27:47.698Z,23.9
2019-02-27T12:32:29.243Z,24.0
2019-02-27T12:37:28.547Z,24.1
2019-02-27T12:42:37.057Z,24.2
2019-02-27T12:47:28.163Z,24.4
2019-02-27T12:52:29.309Z,24.9
2019-02-27T12:57:29.564Z,25.2
2019-02-27T13:02:35.582Z,25.7
2019-02-27T13:07:29.124Z,26.0
2019-02-27T13:12:28.656Z,26.0
2019-02-27T13:17:29.168Z,26.3
2019-02-27T13:22:29.154Z,26.7
2019-02-27T13:27:28.809Z,27.0
2019-02-27T13:32:29.111Z,27.4
2019-02-27T13:37:28.196Z,27.7
2019-02-27T13:42:30.296Z,27.9
2019-02-27T13:47:31.046Z,28.1
2019-02-27T13:52:28.086Z,28.4
2019-02-27T13:57:28.682Z,28.8
2019-02-27T14:02:29.048Z,28.8
2019-02-27T14:07:28.755Z,29.2
2019-02-27T14:12:29.900Z,29.1
2019-02-27T14:17:28.693Z,29.5
2019-02-27T14:22:28.099Z,30.3
2019-02-27T14:27:29.309Z,31.0
2019-02-27T14:32:28.375Z,33.0
2019-02-27T14:37:29.142Z,33.0
2019-02-27T14:42:28.241Z,34.1
2019-02-27T14:47:28.436Z,35.3
2019-02-27T14:52:27.942Z,36.8
2019-02-27T14:57:28.470Z,37.9
2019-02-27T15:02:28.803Z,38.8
2019-02-27T15:07:28.785Z,40.0
2019-02-27T15:12:28.486Z,40.6
2019-02-27T15:17:29.544Z,41.2
2019-02-27T15:22:28.561Z,41.7
2019-02-27T15:27:28.946Z,42.4
2019-02-27T15:32:29.331Z,43.2
2019-02-27T15:37:29.464Z,43.8
2019-02-27T15:42:28.922Z,44.1
2019-02-27T15:47:30.264Z,44.3
2019-02-27T15:52:28.410Z,44.6
2019-02-27T15:57:28.396Z,44.8
2019-02-27T16:02:29.277Z,44.8
2019-02-27T16:07:28.776Z,44.6
2019-02-27T16:12:28.181Z,44.3
2019-02-27T16:17:30.837Z,44.2
2019-02-27T16:22:31.363Z,43.7
2019-02-27T16:27:28.336Z,43.2
2019-02-27T16:32:29.808Z,42.7
2019-02-27T16:37:28.433Z,40.8
2019-02-27T16:42:28.585Z,40.8
2019-02-27T16:47:29.143Z,39.7
2019-02-27T16:52:28.131Z,38.2
2019-02-27T16:57:28.204Z,33.7
2019-02-27T17:02:29.225Z,33.7
2019-02-27T17:07:28.698Z,30.4
2019-02-27T17:12:27.782Z,27.7
2019-02-27T17:17:29.386Z,25.8
2019-02-27T17:22:30.202Z,24.2
2019-02-27T17:27:28.388Z,23.0
2019-02-27T17:32:30.204Z,21.9
2019-02-27T17:37:28.719Z,20.2
2019-02-27T17:42:28.250Z,20.1
2019-02-27T17:47:29.264Z,19.4
2019-02-27T17:52:28.402Z,18.8
2019-02-27T17:57:27.914Z,18.1
2019-02-27T18:02:30.101Z,17.6
2019-02-27T18:07:34.302Z,17.2
2019-02-27T18:12:27.788Z,16.7
2019-02-27T18:17:29.184Z,16.2
2019-02-27T18:22:28.392Z,15.5
2019-02-27T18:27:28.143Z,15.4
2019-02-27T18:32:28.491Z,15.1
2019-02-27T18:37:29.673Z,14.6
2019-02-27T18:42:27.776Z,13.9
2019-02-27T18:47:28.329Z,13.8
2019-02-27T18:52:28.159Z,13.6
2019-02-27T18:57:28.431Z,13.3
2019-02-27T19:02:28.314Z,13.0
2019-02-27T19:07:28.010Z,12.8
2019-02-27T19:12:28.630Z,12.3
2019-02-27T19:17:31.052Z,12.3
2019-02-27T19:22:28.351Z,12.0
2019-02-27T19:27:29.191Z,11.8
2019-02-27T19:32:27.433Z,11.3
2019-02-27T19:37:28.028Z,11.2
2019-02-27T19:42:28.312Z,11.1
2019-02-27T19:47:27.429Z,10.8
2019-02-27T19:52:29.597Z,10.3
2019-02-27T19:57:27.806Z,10.2
2019-02-27T20:02:28.397Z,10.1
2019-02-27T20:07:27.949Z,9.8
2019-02-27T20:12:27.631Z,9.6
2019-02-27T20:17:32.752Z,9.3
2019-02-27T20:22:28.270Z,9.2
2019-02-27T20:27:28.493Z,9.0
2019-02-27T20:32:28.516Z,8.9
2019-02-27T20:37:28.484Z,8.7
2019-02-27T20:42:28.570Z,8.4
2019-02-27T20:47:28.738Z,8.4
2019-02-27T20:52:27.273Z,8.3
2019-02-27T20:57:28.052Z,8.2
2019-02-27T21:02:28.135Z,7.9
2019-02-27T21:07:28.697Z,7.8
2019-02-27T21:12:27.309Z,7.7
2019-02-27T21:17:28.292Z,7.7
2019-02-27T21:22:28.386Z,7.5
2019-02-27T21:27:28.150Z,7.4
2019-02-27T21:32:28.389Z,7.3
2019-02-27T21:37:28.399Z,7.2
2019-02-27T21:42:27.718Z,7.0
2019-02-27T21:47:29.304Z,6.9
2019-02-27T21:52:27.788Z,6.6
2019-02-27T21:57:26.833Z,6.5
2019-02-27T22:02:30.027Z,6.5
2019-02-27T22:07:32.799Z,6.4
2019-02-27T22:12:27.826Z,6.4
2019-02-27T22:17:27.892Z,6.3
2019-02-27T22:22:28.009Z,6.2
2019-02-27T22:27:27.960Z,6.2
2019-02-27T22:32:27.829Z,6.0
2019-02-27T22:37:28.086Z,5.8
2019-02-27T22:42:27.432Z,5.7
2019-02-27T22:47:29.175Z,5.6
2019-02-27T22:52:28.450Z,5.3
2019-02-27T22:57:29.196Z,5.2
2019-02-27T23:02:28.118Z,5.1
2019-02-27T23:07:28.980Z,5.1
2019-02-27T23:12:28.143Z,4.8
2019-02-27T23:22:46.202Z,4.6
2019-02-27T23:27:44.855Z,4.5
2019-02-27T23:32:44.841Z,4.5
2019-02-27T23:37:45.198Z,4.4
2019-02-27T23:42:44.425Z,4.5
2019-02-27T23:47:44.897Z,4.4
2019-02-27T23:52:44.462Z,4.4
2019-02-27T23:57:44.439Z,4.4
